sensor_id;sensor_type;location;lat;lon;timestamp;P1;durP1;ratioP1;P2;durP2;ratioP2
10166;SDS011;62970;53.130;8.244;2023-02-22T06:35:03;16.47;;;11.23;;
10166;SDS011;62970;53.130;8.244;2023-02-22T06:37:34;19.83;;;14.70;;
10166;SDS011;62970;53.130;8.244;2023-02-22T06:40:07;21.17;;;15.93;;
10166;SDS011;62970;53.130;8.244;2023-02-22T06:42:38;22.40;;;16.23;;
10166;SDS011;62970;53.130;8.244;2023-02-22T06:45:10;23.07;;;17.13;;
10166;SDS011;62970;53.130;8.244;2023-02-22T06:47:44;22.50;;;17.40;;
10166;SDS011;62970;53.130;8.244;2023-02-22T06:50:23;23.53;;;17.73;;
10166;SDS011;62970;53.130;8.244;2023-02-22T06:52:57;24.03;;;16.90;;
10166;SDS011;62970;53.130;8.244;2023-02-22T06:55:30;22.50;;;16.47;;
10166;SDS011;62970;53.130;8.244;2023-02-22T06:58:02;25.27;;;18.23;;
10166;SDS011;62970;53.130;8.244;2023-02-22T07:00:32;24.10;;;17.93;;
10166;SDS011;62970;53.130;8.244;2023-02-22T07:03:02;22.27;;;17.37;;
10166;SDS011;62970;53.130;8.244;2023-02-22T07:05:38;26.90;;;18.90;;
10166;SDS011;62970;53.130;8.244;2023-02-22T07:08:07;25.87;;;17.83;;
10166;SDS011;62970;53.130;8.244;2023-02-22T07:10:38;23.97;;;18.13;;
10166;SDS011;62970;53.130;8.244;2023-02-22T07:13:07;25.47;;;18.60;;
10166;SDS011;62970;53.130;8.244;2023-02-22T07:15:39;26.70;;;19.40;;
10166;SDS011;62970;53.130;8.244;2023-02-22T07:18:11;25.30;;;18.40;;
10166;SDS011;62970;53.130;8.244;2023-02-22T07:20:43;25.60;;;18.70;;
10166;SDS011;62970;53.130;8.244;2023-02-22T07:23:13;25.40;;;18.43;;
10166;SDS011;62970;53.130;8.244;2023-02-22T07:26:09;24.97;;;18.30;;
10166;SDS011;62970;53.130;8.244;2023-02-22T07:28:39;26.27;;;19.43;;
10166;SDS011;62970;53.130;8.244;2023-02-22T07:31:08;25.37;;;18.60;;
10166;SDS011;62970;53.130;8.244;2023-02-22T07:33:39;26.83;;;19.43;;
10166;SDS011;62970;53.130;8.244;2023-02-22T07:36:15;27.30;;;19.40;;
10166;SDS011;62970;53.130;8.244;2023-02-22T07:38:44;25.73;;;18.37;;
10166;SDS011;62970;53.130;8.244;2023-02-22T07:41:14;26.43;;;18.63;;
10166;SDS011;62970;53.130;8.244;2023-02-22T07:43:44;28.53;;;19.70;;
10166;SDS011;62970;53.130;8.244;2023-02-22T07:46:14;26.60;;;19.17;;
10166;SDS011;62970;53.130;8.244;2023-02-22T07:48:43;26.13;;;17.23;;
10166;SDS011;62970;53.130;8.244;2023-02-22T07:51:16;24.27;;;17.17;;
10166;SDS011;62970;53.130;8.244;2023-02-22T07:53:48;25.60;;;17.60;;
10166;SDS011;62970;53.130;8.244;2023-02-22T07:56:21;25.73;;;18.03;;
10166;SDS011;62970;53.130;8.244;2023-02-22T07:58:54;26.93;;;18.27;;
10166;SDS011;62970;53.130;8.244;2023-02-22T08:01:24;26.07;;;17.57;;
10166;SDS011;62970;53.130;8.244;2023-02-22T08:03:56;25.93;;;17.43;;
10166;SDS011;62970;53.130;8.244;2023-02-22T08:06:28;27.27;;;17.97;;
10166;SDS011;62970;53.130;8.244;2023-02-22T08:08:57;25.37;;;17.90;;
10166;SDS011;62970;53.130;8.244;2023-02-22T08:11:30;26.27;;;17.87;;
10166;SDS011;62970;53.130;8.244;2023-02-22T08:14:00;24.77;;;17.33;;
10166;SDS011;62970;53.130;8.244;2023-02-22T08:16:29;25.47;;;17.43;;
10166;SDS011;62970;53.130;8.244;2023-02-22T08:18:58;25.63;;;17.27;;
10166;SDS011;62970;53.130;8.244;2023-02-22T08:21:31;24.80;;;17.37;;
10166;SDS011;62970;53.130;8.244;2023-02-22T08:24:00;22.87;;;16.73;;
10166;SDS011;62970;53.130;8.244;2023-02-22T08:26:32;26.03;;;17.73;;
10166;SDS011;62970;53.130;8.244;2023-02-22T08:29:02;24.77;;;16.47;;
10166;SDS011;62970;53.130;8.244;2023-02-22T08:31:31;23.43;;;16.50;;
10166;SDS011;62970;53.130;8.244;2023-02-22T08:34:01;25.93;;;16.80;;
10166;SDS011;62970;53.130;8.244;2023-02-22T08:36:35;23.23;;;16.57;;
10166;SDS011;62970;53.130;8.244;2023-02-22T08:39:09;23.87;;;16.70;;
10166;SDS011;62970;53.130;8.244;2023-02-22T08:41:42;25.63;;;17.37;;
10166;SDS011;62970;53.130;8.244;2023-02-22T08:44:13;23.07;;;16.73;;
10166;SDS011;62970;53.130;8.244;2023-02-22T08:46:47;23.07;;;15.83;;
10166;SDS011;62970;53.130;8.244;2023-02-22T08:49:16;22.73;;;15.77;;
10166;SDS011;62970;53.130;8.244;2023-02-22T08:51:48;22.13;;;16.27;;
10166;SDS011;62970;53.130;8.244;2023-02-22T08:54:19;24.70;;;16.07;;
10166;SDS011;62970;53.130;8.244;2023-02-22T08:56:48;24.07;;;16.77;;
10166;SDS011;62970;53.130;8.244;2023-02-22T08:59:19;22.30;;;15.60;;
10166;SDS011;62970;53.130;8.244;2023-02-22T09:01:51;23.17;;;15.73;;
10166;SDS011;62970;53.130;8.244;2023-02-22T09:04:21;22.83;;;16.90;;
10166;SDS011;62970;53.130;8.244;2023-02-22T09:06:55;22.33;;;15.87;;
10166;SDS011;62970;53.130;8.244;2023-02-22T09:09:24;24.33;;;15.87;;
10166;SDS011;62970;53.130;8.244;2023-02-22T09:11:53;23.20;;;16.40;;
10166;SDS011;62970;53.130;8.244;2023-02-22T09:14:22;22.00;;;16.70;;
10166;SDS011;62970;53.130;8.244;2023-02-22T09:16:51;22.27;;;15.07;;
10166;SDS011;62970;53.130;8.244;2023-02-22T09:19:22;21.80;;;15.23;;
10166;SDS011;62970;53.130;8.244;2023-02-22T09:21:56;21.57;;;16.03;;
10166;SDS011;62970;53.130;8.244;2023-02-22T09:24:29;24.50;;;17.67;;
10166;SDS011;62970;53.130;8.244;2023-02-22T09:26:58;22.27;;;16.40;;
10166;SDS011;62970;53.130;8.244;2023-02-22T09:29:28;23.20;;;16.60;;
10166;SDS011;62970;53.130;8.244;2023-02-22T09:32:00;23.97;;;18.03;;
10166;SDS011;62970;53.130;8.244;2023-02-22T09:34:30;22.40;;;16.63;;
10166;SDS011;62970;53.130;8.244;2023-02-22T09:37:03;23.00;;;17.67;;
10166;SDS011;62970;53.130;8.244;2023-02-22T09:39:34;23.37;;;17.13;;
10166;SDS011;62970;53.130;8.244;2023-02-22T09:42:07;23.43;;;16.80;;
10166;SDS011;62970;53.130;8.244;2023-02-22T09:44:43;24.13;;;17.63;;
10166;SDS011;62970;53.130;8.244;2023-02-22T09:47:19;21.63;;;15.93;;
10166;SDS011;62970;53.130;8.244;2023-02-22T09:49:57;22.37;;;16.60;;
10166;SDS011;62970;53.130;8.244;2023-02-22T09:52:34;23.13;;;16.40;;
10166;SDS011;62970;53.130;8.244;2023-02-22T09:55:11;22.63;;;16.70;;
10166;SDS011;62970;53.130;8.244;2023-02-22T09:58:02;22.03;;;16.63;;
10166;SDS011;62970;53.130;8.244;2023-02-22T10:00:44;21.40;;;16.33;;
10166;SDS011;62970;53.130;8.244;2023-02-22T10:03:20;21.97;;;16.53;;
10166;SDS011;62970;53.130;8.244;2023-02-22T10:05:57;22.57;;;17.50;;
10166;SDS011;62970;53.130;8.244;2023-02-22T10:08:35;23.63;;;18.33;;
10166;SDS011;62970;53.130;8.244;2023-02-22T10:11:08;25.20;;;19.37;;
10166;SDS011;62970;53.130;8.244;2023-02-22T10:14:04;26.07;;;20.47;;
10166;SDS011;62970;53.130;8.244;2023-02-22T10:16:59;27.20;;;20.47;;
10166;SDS011;62970;53.130;8.244;2023-02-22T10:19:36;26.40;;;20.93;;
10166;SDS011;62970;53.130;8.244;2023-02-22T10:22:20;27.77;;;20.33;;
10166;SDS011;62970;53.130;8.244;2023-02-22T10:25:24;26.67;;;20.63;;
10166;SDS011;62970;53.130;8.244;2023-02-22T10:28:00;27.60;;;21.67;;
10166;SDS011;62970;53.130;8.244;2023-02-22T10:30:41;28.63;;;22.30;;
10166;SDS011;62970;53.130;8.244;2023-02-22T10:33:19;26.30;;;21.37;;
10166;SDS011;62970;53.130;8.244;2023-02-22T10:35:51;26.47;;;21.00;;
10166;SDS011;62970;53.130;8.244;2023-02-22T10:38:25;27.87;;;21.33;;
10166;SDS011;62970;53.130;8.244;2023-02-22T10:41:11;25.97;;;19.57;;
10166;SDS011;62970;53.130;8.244;2023-02-22T10:43:52;24.50;;;19.03;;
10166;SDS011;62970;53.130;8.244;2023-02-22T10:46:27;25.00;;;19.07;;
10166;SDS011;62970;53.130;8.244;2023-02-22T10:49:00;25.17;;;18.93;;
10166;SDS011;62970;53.130;8.244;2023-02-22T10:51:33;24.23;;;18.10;;
10166;SDS011;62970;53.130;8.244;2023-02-22T10:54:13;25.13;;;18.87;;
10166;SDS011;62970;53.130;8.244;2023-02-22T10:56:57;24.60;;;18.47;;
10166;SDS011;62970;53.130;8.244;2023-02-22T10:59:30;23.13;;;17.80;;
10166;SDS011;62970;53.130;8.244;2023-02-22T11:02:07;24.03;;;17.67;;
10166;SDS011;62970;53.130;8.244;2023-02-22T11:04:48;24.80;;;18.43;;
10166;SDS011;62970;53.130;8.244;2023-02-22T11:07:23;23.60;;;17.30;;
10166;SDS011;62970;53.130;8.244;2023-02-22T11:09:56;23.27;;;18.07;;
10166;SDS011;62970;53.130;8.244;2023-02-22T11:12:31;23.87;;;18.20;;
10166;SDS011;62970;53.130;8.244;2023-02-22T11:17:56;23.70;;;17.87;;
10166;SDS011;62970;53.130;8.244;2023-02-22T11:20:29;24.57;;;17.60;;
10166;SDS011;62970;53.130;8.244;2023-02-22T11:23:04;25.73;;;18.20;;
10166;SDS011;62970;53.130;8.244;2023-02-22T11:25:35;26.97;;;16.77;;
10166;SDS011;62970;53.130;8.244;2023-02-22T11:28:10;23.63;;;16.67;;
10166;SDS011;62970;53.130;8.244;2023-02-22T11:30:55;22.33;;;15.80;;
10166;SDS011;62970;53.130;8.244;2023-02-22T11:33:44;23.87;;;16.27;;
10166;SDS011;62970;53.130;8.244;2023-02-22T11:36:29;22.77;;;16.63;;
10166;SDS011;62970;53.130;8.244;2023-02-22T11:39:05;23.60;;;15.90;;
10166;SDS011;62970;53.130;8.244;2023-02-22T11:41:51;22.63;;;16.40;;
10166;SDS011;62970;53.130;8.244;2023-02-22T11:44:26;24.00;;;16.53;;
10166;SDS011;62970;53.130;8.244;2023-02-22T11:46:59;22.37;;;15.83;;
10166;SDS011;62970;53.130;8.244;2023-02-22T11:49:34;22.53;;;15.13;;
10166;SDS011;62970;53.130;8.244;2023-02-22T11:52:11;22.83;;;15.70;;
10166;SDS011;62970;53.130;8.244;2023-02-22T11:55:00;21.63;;;16.03;;
10166;SDS011;62970;53.130;8.244;2023-02-22T11:57:49;22.23;;;15.20;;
10166;SDS011;62970;53.130;8.244;2023-02-22T12:00:39;21.03;;;14.80;;
10166;SDS011;62970;53.130;8.244;2023-02-22T12:03:31;21.30;;;15.53;;
10166;SDS011;62970;53.130;8.244;2023-02-22T12:06:35;22.83;;;16.30;;
10166;SDS011;62970;53.130;8.244;2023-02-22T12:09:18;20.30;;;14.50;;
10166;SDS011;62970;53.130;8.244;2023-02-22T12:12:00;19.47;;;14.27;;
10166;SDS011;62970;53.130;8.244;2023-02-22T12:14:39;19.80;;;14.83;;
10166;SDS011;62970;53.130;8.244;2023-02-22T12:17:25;18.50;;;14.07;;
10166;SDS011;62970;53.130;8.244;2023-02-22T12:20:11;19.73;;;14.90;;
10166;SDS011;62970;53.130;8.244;2023-02-22T12:22:53;19.33;;;14.27;;
10166;SDS011;62970;53.130;8.244;2023-02-22T12:25:31;18.03;;;13.90;;
10166;SDS011;62970;53.130;8.244;2023-02-22T12:28:09;19.90;;;14.53;;
10166;SDS011;62970;53.130;8.244;2023-02-22T12:30:49;19.60;;;14.23;;
10166;SDS011;62970;53.130;8.244;2023-02-22T12:33:34;19.70;;;13.77;;
10166;SDS011;62970;53.130;8.244;2023-02-22T12:36:17;18.97;;;13.93;;
10166;SDS011;62970;53.130;8.244;2023-02-22T12:38:53;17.63;;;13.23;;
10166;SDS011;62970;53.130;8.244;2023-02-22T12:41:32;19.87;;;14.57;;
10166;SDS011;62970;53.130;8.244;2023-02-22T12:44:07;20.47;;;13.97;;
10166;SDS011;62970;53.130;8.244;2023-02-22T12:46:46;18.97;;;13.93;;
10166;SDS011;62970;53.130;8.244;2023-02-22T12:49:22;19.83;;;14.00;;
10166;SDS011;62970;53.130;8.244;2023-02-22T12:51:59;18.20;;;13.93;;
10166;SDS011;62970;53.130;8.244;2023-02-22T12:54:40;18.10;;;14.17;;
10166;SDS011;62970;53.130;8.244;2023-02-22T12:57:17;17.47;;;12.90;;
10166;SDS011;62970;53.130;8.244;2023-02-22T12:59:58;18.33;;;13.90;;
10166;SDS011;62970;53.130;8.244;2023-02-22T13:02:34;16.80;;;13.03;;
10166;SDS011;62970;53.130;8.244;2023-02-22T13:05:16;17.90;;;13.70;;
10166;SDS011;62970;53.130;8.244;2023-02-22T13:07:47;16.47;;;13.20;;
10166;SDS011;62970;53.130;8.244;2023-02-22T13:10:36;17.97;;;13.10;;
10166;SDS011;62970;53.130;8.244;2023-02-22T13:13:33;16.60;;;12.90;;
10166;SDS011;62970;53.130;8.244;2023-02-22T13:16:15;17.50;;;13.30;;
10166;SDS011;62970;53.130;8.244;2023-02-22T13:19:00;16.23;;;12.63;;
10166;SDS011;62970;53.130;8.244;2023-02-22T13:22:02;17.17;;;12.90;;
10166;SDS011;62970;53.130;8.244;2023-02-22T13:24:47;19.57;;;13.53;;
10166;SDS011;62970;53.130;8.244;2023-02-22T13:27:29;17.70;;;13.33;;
10166;SDS011;62970;53.130;8.244;2023-02-22T13:30:12;17.33;;;13.80;;
10166;SDS011;62970;53.130;8.244;2023-02-22T13:33:01;15.93;;;13.07;;
10166;SDS011;62970;53.130;8.244;2023-02-22T13:36:08;17.47;;;12.30;;
10166;SDS011;62970;53.130;8.244;2023-02-22T13:39:00;18.40;;;13.97;;
10166;SDS011;62970;53.130;8.244;2023-02-22T13:41:56;16.37;;;12.83;;
10166;SDS011;62970;53.130;8.244;2023-02-22T13:44:55;15.37;;;12.77;;
10166;SDS011;62970;53.130;8.244;2023-02-22T13:51:05;16.97;;;13.03;;
10166;SDS011;62970;53.130;8.244;2023-02-22T13:53:48;16.83;;;13.90;;
10166;SDS011;62970;53.130;8.244;2023-02-22T13:56:24;15.57;;;13.43;;
10166;SDS011;62970;53.130;8.244;2023-02-22T13:58:59;18.17;;;13.40;;
10166;SDS011;62970;53.130;8.244;2023-02-22T14:01:38;16.97;;;13.47;;
10166;SDS011;62970;53.130;8.244;2023-02-22T14:04:20;16.00;;;13.27;;
10166;SDS011;62970;53.130;8.244;2023-02-22T14:10:36;16.30;;;12.43;;
10166;SDS011;62970;53.130;8.244;2023-02-22T14:13:17;17.33;;;13.93;;
10166;SDS011;62970;53.130;8.244;2023-02-22T14:18:59;16.43;;;13.23;;
10166;SDS011;62970;53.130;8.244;2023-02-22T14:21:35;18.10;;;13.30;;
10166;SDS011;62970;53.130;8.244;2023-02-22T14:24:21;15.93;;;12.73;;
10166;SDS011;62970;53.130;8.244;2023-02-22T14:26:52;17.20;;;13.73;;
10166;SDS011;62970;53.130;8.244;2023-02-22T14:29:32;16.30;;;13.20;;
10166;SDS011;62970;53.130;8.244;2023-02-22T14:32:04;17.23;;;13.87;;
10166;SDS011;62970;53.130;8.244;2023-02-22T14:34:40;17.90;;;13.43;;
10166;SDS011;62970;53.130;8.244;2023-02-22T14:37:15;16.43;;;13.60;;
10166;SDS011;62970;53.130;8.244;2023-02-22T14:39:56;16.80;;;13.40;;
10166;SDS011;62970;53.130;8.244;2023-02-22T14:42:37;18.20;;;14.07;;
10166;SDS011;62970;53.130;8.244;2023-02-22T14:45:16;17.53;;;13.00;;
10166;SDS011;62970;53.130;8.244;2023-02-22T14:47:53;18.10;;;14.07;;
10166;SDS011;62970;53.130;8.244;2023-02-22T14:50:36;19.50;;;13.93;;
10166;SDS011;62970;53.130;8.244;2023-02-22T14:53:21;18.40;;;13.70;;
10166;SDS011;62970;53.130;8.244;2023-02-22T14:55:56;15.87;;;13.10;;
10166;SDS011;62970;53.130;8.244;2023-02-22T14:58:32;16.17;;;13.43;;
10166;SDS011;62970;53.130;8.244;2023-02-22T15:01:27;19.37;;;14.30;;
10166;SDS011;62970;53.130;8.244;2023-02-22T15:04:15;17.83;;;14.23;;
10166;SDS011;62970;53.130;8.244;2023-02-22T15:06:46;19.10;;;13.83;;
10166;SDS011;62970;53.130;8.244;2023-02-22T15:09:17;18.03;;;14.43;;
10166;SDS011;62970;53.130;8.244;2023-02-22T15:11:52;19.10;;;14.27;;
10166;SDS011;62970;53.130;8.244;2023-02-22T15:14:39;15.77;;;13.50;;
10166;SDS011;62970;53.130;8.244;2023-02-22T15:17:15;17.30;;;14.13;;
10166;SDS011;62970;53.130;8.244;2023-02-22T15:19:49;19.27;;;15.27;;
10166;SDS011;62970;53.130;8.244;2023-02-22T15:22:22;18.37;;;14.43;;
10166;SDS011;62970;53.130;8.244;2023-02-22T15:24:58;17.80;;;14.50;;
10166;SDS011;62970;53.130;8.244;2023-02-22T15:27:29;20.73;;;14.63;;
10166;SDS011;62970;53.130;8.244;2023-02-22T15:30:02;19.43;;;15.10;;
10166;SDS011;62970;53.130;8.244;2023-02-22T15:32:38;20.47;;;15.23;;
10166;SDS011;62970;53.130;8.244;2023-02-22T15:35:14;20.83;;;15.20;;
10166;SDS011;62970;53.130;8.244;2023-02-22T15:37:57;19.37;;;14.93;;
10166;SDS011;62970;53.130;8.244;2023-02-22T15:40:36;19.50;;;15.80;;
10166;SDS011;62970;53.130;8.244;2023-02-22T15:43:14;22.57;;;15.23;;
10166;SDS011;62970;53.130;8.244;2023-02-22T15:45:49;19.43;;;15.07;;
10166;SDS011;62970;53.130;8.244;2023-02-22T15:48:21;20.73;;;16.27;;
10166;SDS011;62970;53.130;8.244;2023-02-22T15:51:00;20.90;;;16.20;;
10166;SDS011;62970;53.130;8.244;2023-02-22T15:53:38;21.17;;;16.53;;
10166;SDS011;62970;53.130;8.244;2023-02-22T15:56:17;21.17;;;15.57;;
10166;SDS011;62970;53.130;8.244;2023-02-22T15:58:58;19.90;;;16.40;;
10166;SDS011;62970;53.130;8.244;2023-02-22T16:01:35;21.13;;;16.47;;
10166;SDS011;62970;53.130;8.244;2023-02-22T16:04:14;20.07;;;15.47;;
10166;SDS011;62970;53.130;8.244;2023-02-22T16:06:46;20.10;;;15.33;;
10166;SDS011;62970;53.130;8.244;2023-02-22T16:09:16;22.40;;;16.67;;
10166;SDS011;62970;53.130;8.244;2023-02-22T16:11:50;20.30;;;16.20;;
10166;SDS011;62970;53.130;8.244;2023-02-22T16:14:51;20.80;;;15.97;;
10166;SDS011;62970;53.130;8.244;2023-02-22T16:17:26;22.20;;;16.33;;
10166;SDS011;62970;53.130;8.244;2023-02-22T16:23:22;20.97;;;15.73;;
10166;SDS011;62970;53.130;8.244;2023-02-22T16:26:04;22.27;;;17.70;;
10166;SDS011;62970;53.130;8.244;2023-02-22T16:28:47;23.97;;;17.70;;
10166;SDS011;62970;53.130;8.244;2023-02-22T16:31:19;22.63;;;17.50;;
10166;SDS011;62970;53.130;8.244;2023-02-22T16:33:52;22.00;;;17.23;;
10166;SDS011;62970;53.130;8.244;2023-02-22T16:36:35;21.33;;;17.40;;
10166;SDS011;62970;53.130;8.244;2023-02-22T16:39:07;22.17;;;16.70;;
10166;SDS011;62970;53.130;8.244;2023-02-22T16:41:46;20.50;;;16.00;;
10166;SDS011;62970;53.130;8.244;2023-02-22T16:44:18;22.60;;;16.43;;
10166;SDS011;62970;53.130;8.244;2023-02-22T16:46:49;25.27;;;17.63;;
10166;SDS011;62970;53.130;8.244;2023-02-22T16:49:21;24.07;;;17.50;;
10166;SDS011;62970;53.130;8.244;2023-02-22T16:51:55;26.40;;;18.43;;
10166;SDS011;62970;53.130;8.244;2023-02-22T16:54:28;28.90;;;19.80;;
10166;SDS011;62970;53.130;8.244;2023-02-22T16:57:03;27.60;;;19.73;;
10166;SDS011;62970;53.130;8.244;2023-02-22T16:59:37;27.87;;;19.57;;
10166;SDS011;62970;53.130;8.244;2023-02-22T17:02:09;25.57;;;18.47;;
10166;SDS011;62970;53.130;8.244;2023-02-22T17:04:42;25.87;;;19.60;;
10166;SDS011;62970;53.130;8.244;2023-02-22T17:07:20;22.53;;;17.77;;
10166;SDS011;62970;53.130;8.244;2023-02-22T17:09:54;22.80;;;17.47;;
10166;SDS011;62970;53.130;8.244;2023-02-22T17:12:28;23.70;;;15.87;;
10166;SDS011;62970;53.130;8.244;2023-02-22T17:15:00;22.80;;;17.13;;
10166;SDS011;62970;53.130;8.244;2023-02-22T17:17:31;23.43;;;17.10;;
10166;SDS011;62970;53.130;8.244;2023-02-22T17:20:01;20.00;;;16.67;;
10166;SDS011;62970;53.130;8.244;2023-02-22T17:22:38;21.10;;;17.13;;
10166;SDS011;62970;53.130;8.244;2023-02-22T17:25:16;19.50;;;15.50;;
10166;SDS011;62970;53.130;8.244;2023-02-22T17:27:54;21.83;;;16.63;;
10166;SDS011;62970;53.130;8.244;2023-02-22T17:30:23;17.90;;;14.63;;
10166;SDS011;62970;53.130;8.244;2023-02-22T17:32:57;21.77;;;15.87;;
10166;SDS011;62970;53.130;8.244;2023-02-22T17:35:33;20.03;;;15.93;;
10166;SDS011;62970;53.130;8.244;2023-02-22T17:38:08;19.10;;;15.90;;
10166;SDS011;62970;53.130;8.244;2023-02-22T17:40:38;19.10;;;15.80;;
10166;SDS011;62970;53.130;8.244;2023-02-22T17:43:16;19.33;;;15.83;;
10166;SDS011;62970;53.130;8.244;2023-02-22T17:45:46;20.83;;;15.53;;
10166;SDS011;62970;53.130;8.244;2023-02-22T17:48:18;19.73;;;15.93;;
10166;SDS011;62970;53.130;8.244;2023-02-22T17:50:47;21.67;;;16.60;;
10166;SDS011;62970;53.130;8.244;2023-02-22T17:53:20;19.97;;;15.57;;
10166;SDS011;62970;53.130;8.244;2023-02-22T17:55:49;22.87;;;17.27;;
10166;SDS011;62970;53.130;8.244;2023-02-22T17:58:19;21.70;;;17.00;;
10166;SDS011;62970;53.130;8.244;2023-02-22T18:00:54;22.27;;;16.50;;
10166;SDS011;62970;53.130;8.244;2023-02-22T18:03:25;22.87;;;16.80;;
10166;SDS011;62970;53.130;8.244;2023-02-22T18:05:57;22.00;;;16.53;;
10166;SDS011;62970;53.130;8.244;2023-02-22T18:08:30;21.03;;;16.27;;
10166;SDS011;62970;53.130;8.244;2023-02-22T18:11:03;23.17;;;17.50;;
10166;SDS011;62970;53.130;8.244;2023-02-22T18:13:39;20.57;;;16.13;;
10166;SDS011;62970;53.130;8.244;2023-02-22T18:16:09;22.17;;;16.93;;
10166;SDS011;62970;53.130;8.244;2023-02-22T18:18:42;20.77;;;15.77;;
10166;SDS011;62970;53.130;8.244;2023-02-22T18:21:14;21.97;;;17.77;;
10166;SDS011;62970;53.130;8.244;2023-02-22T18:23:46;24.33;;;17.10;;
10166;SDS011;62970;53.130;8.244;2023-02-22T18:26:17;21.37;;;17.03;;
10166;SDS011;62970;53.130;8.244;2023-02-22T18:28:52;21.43;;;16.20;;
10166;SDS011;62970;53.130;8.244;2023-02-22T18:31:28;22.07;;;16.90;;
10166;SDS011;62970;53.130;8.244;2023-02-22T18:33:57;22.87;;;17.37;;
10166;SDS011;62970;53.130;8.244;2023-02-22T18:36:37;21.03;;;16.80;;
10166;SDS011;62970;53.130;8.244;2023-02-22T18:39:11;23.97;;;17.77;;
10166;SDS011;62970;53.130;8.244;2023-02-22T18:41:41;26.53;;;19.20;;
10166;SDS011;62970;53.130;8.244;2023-02-22T18:44:13;29.83;;;20.50;;
10166;SDS011;62970;53.130;8.244;2023-02-22T18:46:44;39.93;;;24.80;;
10166;SDS011;62970;53.130;8.244;2023-02-22T18:49:20;39.20;;;23.10;;
10166;SDS011;62970;53.130;8.244;2023-02-22T18:51:58;40.97;;;24.83;;
10166;SDS011;62970;53.130;8.244;2023-02-22T18:54:30;45.97;;;28.87;;
10166;SDS011;62970;53.130;8.244;2023-02-22T18:57:02;47.83;;;28.80;;
10166;SDS011;62970;53.130;8.244;2023-02-22T18:59:32;43.27;;;27.53;;
10166;SDS011;62970;53.130;8.244;2023-02-22T19:02:02;39.87;;;26.60;;
10166;SDS011;62970;53.130;8.244;2023-02-22T19:04:34;40.13;;;25.97;;
10166;SDS011;62970;53.130;8.244;2023-02-22T19:07:03;37.53;;;23.60;;
10166;SDS011;62970;53.130;8.244;2023-02-22T19:09:38;37.80;;;24.23;;
10166;SDS011;62970;53.130;8.244;2023-02-22T19:12:07;41.17;;;27.07;;
10166;SDS011;62970;53.130;8.244;2023-02-22T19:14:41;41.07;;;27.27;;
10166;SDS011;62970;53.130;8.244;2023-02-22T19:17:14;38.70;;;25.07;;
10166;SDS011;62970;53.130;8.244;2023-02-22T19:19:45;36.77;;;24.57;;
10166;SDS011;62970;53.130;8.244;2023-02-22T19:22:19;36.30;;;24.47;;
10166;SDS011;62970;53.130;8.244;2023-02-22T19:24:54;33.80;;;23.93;;
10166;SDS011;62970;53.130;8.244;2023-02-22T19:27:25;37.43;;;25.13;;
10166;SDS011;62970;53.130;8.244;2023-02-22T19:29:55;37.33;;;25.40;;
10166;SDS011;62970;53.130;8.244;2023-02-22T19:32:28;38.23;;;24.73;;
10166;SDS011;62970;53.130;8.244;2023-02-22T19:35:00;34.53;;;23.27;;
10166;SDS011;62970;53.130;8.244;2023-02-22T19:37:33;33.17;;;23.97;;
10166;SDS011;62970;53.130;8.244;2023-02-22T19:40:07;35.60;;;25.57;;
10166;SDS011;62970;53.130;8.244;2023-02-22T22:31:35;24.80;;;18.60;;
10166;SDS011;62970;53.130;8.244;2023-02-22T22:34:08;24.70;;;19.07;;
10166;SDS011;62970;53.130;8.244;2023-02-22T22:36:41;26.27;;;20.67;;
10166;SDS011;62970;53.130;8.244;2023-02-22T22:39:17;25.77;;;20.47;;
10166;SDS011;62970;53.130;8.244;2023-02-22T22:41:50;23.80;;;20.50;;
10166;SDS011;62970;53.130;8.244;2023-02-22T22:44:21;28.00;;;21.03;;
10166;SDS011;62970;53.130;8.244;2023-02-22T22:49:51;27.10;;;21.40;;
10166;SDS011;62970;53.130;8.244;2023-02-22T22:52:25;25.67;;;20.87;;
10166;SDS011;62970;53.130;8.244;2023-02-22T22:55:02;25.53;;;21.90;;
10166;SDS011;62970;53.130;8.244;2023-02-22T22:57:36;26.60;;;21.67;;
10166;SDS011;62970;53.130;8.244;2023-02-22T23:00:12;24.50;;;20.93;;
10166;SDS011;62970;53.130;8.244;2023-02-22T23:02:57;27.07;;;21.10;;
10166;SDS011;62970;53.130;8.244;2023-02-22T23:05:28;26.47;;;21.80;;
10166;SDS011;62970;53.130;8.244;2023-02-22T23:08:03;26.07;;;21.67;;
10166;SDS011;62970;53.130;8.244;2023-02-22T23:10:41;26.93;;;21.00;;
10166;SDS011;62970;53.130;8.244;2023-02-22T23:13:12;25.60;;;21.90;;
10166;SDS011;62970;53.130;8.244;2023-02-22T23:15:45;24.93;;;21.17;;
10166;SDS011;62970;53.130;8.244;2023-02-22T23:18:17;26.10;;;20.43;;
10166;SDS011;62970;53.130;8.244;2023-02-22T23:20:47;26.47;;;20.83;;
10166;SDS011;62970;53.130;8.244;2023-02-22T23:23:20;24.40;;;19.93;;
10166;SDS011;62970;53.130;8.244;2023-02-22T23:25:59;24.17;;;19.30;;
10166;SDS011;62970;53.130;8.244;2023-02-22T23:28:35;22.47;;;19.00;;
10166;SDS011;62970;53.130;8.244;2023-02-22T23:31:09;23.03;;;18.57;;
10166;SDS011;62970;53.130;8.244;2023-02-22T23:33:45;24.10;;;19.73;;
10166;SDS011;62970;53.130;8.244;2023-02-22T23:36:22;23.30;;;19.20;;
10166;SDS011;62970;53.130;8.244;2023-02-22T23:38:53;23.53;;;18.97;;
10166;SDS011;62970;53.130;8.244;2023-02-22T23:41:23;24.33;;;19.97;;
10166;SDS011;62970;53.130;8.244;2023-02-22T23:44:00;25.77;;;20.50;;
10166;SDS011;62970;53.130;8.244;2023-02-22T23:46:32;24.60;;;20.03;;
10166;SDS011;62970;53.130;8.244;2023-02-22T23:49:09;23.17;;;20.67;;
10166;SDS011;62970;53.130;8.244;2023-02-22T23:51:41;24.93;;;20.67;;
10166;SDS011;62970;53.130;8.244;2023-02-22T23:54:16;22.73;;;19.47;;
10166;SDS011;62970;53.130;8.244;2023-02-22T23:57:00;23.67;;;20.37;;
10166;SDS011;62970;53.130;8.244;2023-02-22T23:59:30;25.63;;;20.20;;
